createdAt,value
2018-11-13T00:02:10.924Z,7.89
2018-11-13T00:04:40.657Z,7.93
2018-11-13T00:07:10.572Z,7.87
2018-11-13T00:09:40.725Z,7.84
2018-11-13T00:12:10.550Z,7.84
2018-11-13T00:14:40.454Z,7.88
2018-11-13T00:17:10.320Z,7.80
2018-11-13T00:19:40.170Z,7.77
2018-11-13T00:22:09.997Z,7.74
2018-11-13T00:24:39.674Z,7.74
2018-11-13T00:27:09.558Z,7.72
2018-11-13T00:29:39.437Z,7.68
2018-11-13T00:32:09.236Z,7.66
2018-11-13T00:34:39.089Z,7.63
2018-11-13T00:37:08.941Z,7.60
2018-11-13T00:39:38.764Z,7.54
2018-11-13T00:42:08.592Z,7.52
2018-11-13T00:44:38.496Z,6.99
2018-11-13T00:47:08.328Z,7.51
2018-11-13T00:49:38.147Z,7.47
2018-11-13T00:52:08.061Z,7.42
2018-11-13T00:54:37.802Z,7.44
2018-11-13T00:57:08.270Z,7.45
2018-11-13T00:59:38.190Z,7.44
2018-11-13T01:02:08.380Z,7.44
2018-11-13T01:04:37.811Z,7.42
2018-11-13T01:07:07.736Z,7.33
2018-11-13T01:09:37.474Z,7.26
2018-11-13T01:12:07.314Z,6.69
2018-11-13T01:14:37.349Z,7.17
2018-11-13T01:17:07.240Z,7.18
2018-11-13T01:19:37.151Z,7.24
2018-11-13T01:22:08.139Z,7.27
2018-11-13T01:24:38.092Z,7.23
2018-11-13T01:27:07.847Z,7.15
2018-11-13T01:29:37.759Z,7.17
2018-11-13T01:32:07.552Z,7.23
2018-11-13T01:34:37.447Z,7.18
2018-11-13T01:37:07.419Z,7.20
2018-11-13T01:39:37.165Z,7.18
2018-11-13T01:42:07.000Z,7.21
2018-11-13T01:44:36.818Z,7.19
2018-11-13T01:47:06.782Z,7.21
2018-11-13T01:49:36.969Z,7.25
2018-11-13T01:52:06.967Z,7.27
2018-11-13T01:54:36.721Z,7.34
2018-11-13T01:57:06.802Z,7.36
2018-11-13T01:59:36.703Z,7.32
2018-11-13T02:02:06.691Z,7.29
2018-11-13T02:04:36.646Z,7.23
2018-11-13T02:07:06.609Z,7.23
2018-11-13T02:09:36.530Z,7.22
2018-11-13T02:12:06.493Z,7.20
2018-11-13T02:14:36.386Z,7.13
2018-11-13T02:17:06.718Z,7.09
2018-11-13T02:19:36.594Z,7.00
2018-11-13T02:22:06.475Z,6.95
2018-11-13T02:24:36.290Z,6.94
2018-11-13T02:27:06.503Z,6.90
2018-11-13T02:29:36.430Z,6.93
2018-11-13T02:32:06.443Z,6.91
2018-11-13T02:34:36.339Z,6.86
2018-11-13T02:37:06.401Z,6.84
2018-11-13T02:39:36.354Z,6.83
2018-11-13T02:42:06.465Z,6.83
2018-11-13T02:44:36.342Z,6.80
2018-11-13T02:47:06.206Z,6.79
2018-11-13T02:49:36.012Z,6.83
2018-11-13T02:52:05.855Z,6.85
2018-11-13T02:54:35.642Z,6.82
2018-11-13T02:57:06.542Z,6.80
2018-11-13T02:59:36.431Z,6.78
2018-11-13T03:02:06.784Z,6.77
2018-11-13T03:04:37.641Z,6.76
2018-11-13T03:07:07.325Z,6.75
2018-11-13T03:09:37.100Z,6.73
2018-11-13T03:12:07.560Z,6.79
2018-11-13T03:14:37.845Z,6.79
2018-11-13T03:17:08.438Z,6.71
2018-11-13T03:19:38.821Z,6.65
2018-11-13T03:22:09.517Z,6.62
2018-11-13T03:24:40.582Z,6.59
2018-11-13T03:27:11.846Z,6.60
2018-11-13T03:29:42.179Z,6.61
2018-11-13T03:32:13.282Z,6.64
2018-11-13T03:34:43.308Z,6.64
2018-11-13T03:37:13.037Z,6.64
2018-11-13T03:39:43.521Z,6.58
2018-11-13T03:42:13.305Z,6.53
2018-11-13T03:44:43.313Z,6.55
2018-11-13T03:47:13.935Z,6.56
2018-11-13T03:49:44.728Z,6.52
2018-11-13T03:52:15.416Z,6.53
2018-11-13T03:54:45.350Z,6.58
2018-11-13T03:57:16.666Z,6.62
2018-11-13T03:59:47.163Z,6.60
2018-11-13T04:02:18.865Z,6.60
2018-11-13T04:04:50.113Z,6.60
2018-11-13T04:07:20.423Z,6.62
2018-11-13T04:09:51.353Z,6.62
2018-11-13T04:12:21.069Z,6.59
2018-11-13T04:14:50.961Z,6.59
2018-11-13T04:17:21.525Z,6.59
2018-11-13T04:19:52.218Z,6.59
2018-11-13T04:22:22.989Z,6.58
2018-11-13T04:24:53.279Z,6.54
2018-11-13T04:27:24.336Z,6.51
2018-11-13T04:29:54.043Z,6.58
2018-11-13T04:32:23.944Z,6.58
2018-11-13T04:34:54.203Z,6.52
2018-11-13T04:37:24.575Z,6.49
2018-11-13T04:39:54.762Z,6.47
2018-11-13T04:42:24.832Z,6.46
2018-11-13T04:44:54.568Z,6.43
2018-11-13T04:47:24.834Z,6.38
2018-11-13T04:49:55.865Z,6.34
2018-11-13T04:52:25.769Z,6.29
2018-11-13T04:54:56.255Z,6.29
2018-11-13T04:57:26.277Z,6.27
2018-11-13T04:59:57.163Z,6.22
2018-11-13T05:02:26.815Z,6.21
2018-11-13T05:04:57.217Z,6.20
2018-11-13T05:07:27.103Z,6.18
2018-11-13T05:09:57.558Z,6.20
2018-11-13T05:12:27.353Z,6.12
2018-11-13T05:14:57.757Z,6.05
2018-11-13T05:17:27.524Z,6.06
2018-11-13T05:19:57.431Z,6.11
2018-11-13T05:22:27.048Z,6.11
2018-11-13T05:24:58.384Z,6.17
2018-11-13T05:27:28.490Z,6.20
2018-11-13T05:29:58.915Z,6.19
2018-11-13T05:32:29.189Z,6.25
2018-11-13T05:34:59.349Z,6.23
2018-11-13T05:37:30.697Z,6.21
2018-11-13T05:40:01.355Z,6.15
2018-11-13T05:42:35.839Z,6.26
2018-11-13T05:45:16.321Z,6.36
2018-11-13T05:47:46.742Z,6.43
2018-11-13T05:50:28.353Z,6.46
2018-11-13T05:52:58.974Z,6.39
2018-11-13T05:55:28.528Z,6.40
2018-11-13T05:57:58.898Z,6.36
2018-11-13T06:00:33.664Z,6.32
2018-11-13T06:03:04.578Z,6.27
2018-11-13T06:05:35.254Z,6.41
2018-11-13T06:08:05.703Z,6.53
2018-11-13T06:10:35.729Z,6.63
2018-11-13T06:13:06.514Z,6.67
2018-11-13T06:15:37.337Z,6.70
2018-11-13T06:18:07.142Z,6.76
2018-11-13T06:20:38.227Z,5.68
2018-11-13T06:23:09.092Z,6.87
2018-11-13T06:25:39.868Z,6.99
2018-11-13T06:28:10.738Z,7.23
2018-11-13T06:30:42.568Z,7.76
2018-11-13T06:33:12.361Z,8.18
2018-11-13T06:35:42.270Z,8.45
2018-11-13T06:38:12.050Z,8.65
2018-11-13T06:40:42.035Z,8.94
2018-11-13T06:43:11.785Z,9.10
2018-11-13T06:45:41.544Z,9.29
2018-11-13T06:48:11.505Z,9.46
2018-11-13T06:50:41.332Z,9.53
2018-11-13T06:53:11.133Z,9.30
2018-11-13T06:55:43.817Z,9.67
2018-11-13T06:58:13.698Z,9.58
2018-11-13T07:00:43.594Z,9.42
2018-11-13T07:03:13.430Z,9.30
2018-11-13T07:05:43.268Z,9.22
2018-11-13T07:08:13.193Z,9.16
2018-11-13T07:10:43.103Z,9.18
2018-11-13T07:13:12.962Z,9.32
2018-11-13T07:15:42.871Z,9.48
2018-11-13T07:18:12.770Z,9.65
2018-11-13T07:20:42.639Z,9.83
2018-11-13T07:23:12.529Z,9.96
2018-11-13T07:25:42.474Z,10.11
2018-11-13T07:28:12.351Z,10.24
2018-11-13T07:30:42.213Z,10.32
2018-11-13T07:33:12.082Z,10.32
2018-11-13T07:35:41.970Z,10.33
2018-11-13T07:38:11.913Z,10.24
2018-11-13T07:40:41.877Z,10.20
2018-11-13T07:43:11.764Z,10.05
2018-11-13T07:45:41.664Z,9.96
2018-11-13T07:48:11.576Z,9.87
2018-11-13T07:50:41.472Z,9.82
2018-11-13T07:53:11.302Z,9.83
2018-11-13T07:55:41.234Z,9.79
2018-11-13T07:58:11.023Z,9.79
2018-11-13T08:00:40.902Z,9.87
2018-11-13T08:03:33.381Z,8.95
2018-11-13T08:06:04.032Z,10.17
2018-11-13T08:08:33.931Z,10.26
2018-11-13T08:11:04.862Z,10.37
2018-11-13T08:13:35.466Z,10.43
2018-11-13T08:16:05.424Z,10.47
2018-11-13T08:18:35.341Z,10.52
2018-11-13T08:21:05.277Z,10.62
2018-11-13T08:23:35.132Z,10.70
2018-11-13T08:26:05.098Z,10.77
2018-11-13T08:28:35.034Z,10.97
2018-11-13T08:31:05.428Z,11.28
2018-11-13T08:33:35.343Z,11.65
2018-11-13T08:36:05.290Z,12.05
2018-11-13T08:38:35.150Z,12.41
2018-11-13T08:41:05.303Z,12.75
2018-11-13T08:43:35.230Z,13.02
2018-11-13T08:46:05.270Z,13.22
2018-11-13T08:48:35.544Z,12.56
2018-11-13T08:51:05.691Z,13.47
2018-11-13T08:53:35.562Z,13.42
2018-11-13T08:56:05.562Z,13.55
2018-11-13T08:58:35.864Z,13.69
2018-11-13T09:01:05.962Z,13.83
2018-11-13T09:03:35.818Z,13.81
2018-11-13T09:06:05.867Z,13.92
2018-11-13T09:08:35.815Z,14.03
2018-11-13T09:11:05.689Z,14.10
2018-11-13T09:13:35.647Z,14.15
2018-11-13T09:16:05.854Z,13.98
2018-11-13T09:18:35.779Z,13.96
2018-11-13T09:21:05.876Z,13.94
2018-11-13T09:23:35.790Z,14.08
2018-11-13T09:26:05.740Z,14.29
2018-11-13T09:28:35.715Z,14.35
2018-11-13T09:31:05.821Z,14.37
2018-11-13T09:33:36.123Z,14.34
2018-11-13T09:36:06.346Z,14.29
2018-11-13T09:38:36.226Z,14.29
2018-11-13T09:41:06.234Z,14.31
2018-11-13T09:43:36.132Z,14.20
2018-11-13T09:46:06.220Z,14.04
2018-11-13T09:48:36.037Z,13.96
2018-11-13T09:51:06.055Z,12.73
2018-11-13T09:53:36.024Z,13.96
2018-11-13T09:56:06.174Z,14.13
2018-11-13T09:58:36.130Z,14.33
2018-11-13T10:01:06.755Z,14.32
2018-11-13T10:03:36.861Z,14.18
2018-11-13T10:06:06.194Z,14.07
2018-11-13T10:08:36.004Z,13.98
2018-11-13T10:11:06.090Z,13.92
2018-11-13T10:13:35.892Z,13.86
2018-11-13T10:16:05.770Z,13.78
2018-11-13T10:18:35.626Z,13.61
2018-11-13T10:21:05.626Z,13.62
2018-11-13T10:23:35.446Z,13.60
2018-11-13T10:26:05.511Z,13.56
2018-11-13T10:28:35.506Z,13.55
2018-11-13T10:31:05.516Z,13.53
2018-11-13T10:33:35.392Z,13.50
2018-11-13T10:36:05.429Z,13.44
2018-11-13T10:38:35.427Z,13.44
2018-11-13T10:41:05.865Z,13.50
2018-11-13T10:43:35.768Z,13.42
2018-11-13T10:46:06.076Z,13.46
2018-11-13T10:48:36.003Z,13.50
2018-11-13T10:51:06.084Z,13.50
2018-11-13T10:53:35.875Z,13.54
2018-11-13T10:56:07.113Z,13.50
2018-11-13T10:58:36.960Z,13.44
2018-11-13T11:01:12.419Z,13.48
2018-11-13T11:03:47.104Z,13.50
2018-11-13T11:06:17.088Z,13.49
2018-11-13T11:08:46.987Z,13.63
2018-11-13T11:11:16.887Z,13.64
2018-11-13T11:13:46.917Z,13.67
2018-11-13T11:16:16.691Z,13.82
2018-11-13T11:18:46.609Z,13.88
2018-11-13T11:21:16.432Z,13.91
2018-11-13T11:23:46.432Z,13.84
2018-11-13T11:26:16.255Z,13.88
2018-11-13T11:28:46.106Z,13.86
2018-11-13T11:31:15.975Z,13.85
2018-11-13T11:33:45.899Z,13.89
2018-11-13T11:36:15.842Z,13.96
2018-11-13T11:38:45.731Z,13.96
2018-11-13T11:41:15.531Z,14.01
2018-11-13T11:43:45.413Z,13.96
2018-11-13T11:46:15.233Z,13.85
2018-11-13T11:48:45.155Z,13.90
2018-11-13T11:51:15.102Z,13.94
2018-11-13T11:53:44.970Z,13.98
2018-11-13T11:56:14.854Z,14.09
2018-11-13T11:58:44.772Z,14.02
2018-11-13T12:01:14.693Z,14.14
2018-11-13T12:03:44.526Z,14.07
2018-11-13T12:06:14.520Z,14.08
2018-11-13T12:08:44.367Z,14.16
2018-11-13T12:11:14.238Z,14.17
2018-11-13T12:13:44.113Z,14.10
2018-11-13T12:16:13.979Z,14.16
2018-11-13T12:18:43.937Z,14.20
2018-11-13T12:21:13.783Z,14.22
2018-11-13T12:23:43.631Z,14.23
2018-11-13T12:26:13.600Z,14.25
2018-11-13T12:28:43.483Z,14.28
2018-11-13T12:31:13.331Z,14.24
2018-11-13T12:33:43.136Z,14.27
2018-11-13T12:36:13.095Z,14.25
2018-11-13T12:38:43.077Z,14.22
2018-11-13T12:41:12.999Z,14.22
2018-11-13T12:43:42.855Z,14.21
2018-11-13T12:46:12.593Z,14.32
2018-11-13T12:48:42.585Z,14.26
2018-11-13T12:51:16.479Z,14.20
2018-11-13T12:53:46.313Z,14.18
2018-11-13T12:56:16.209Z,14.13
2018-11-13T12:58:46.195Z,14.13
2018-11-13T13:01:16.111Z,14.05
2018-11-13T13:03:46.026Z,14.07
2018-11-13T13:06:15.945Z,14.08
2018-11-13T13:08:45.890Z,14.09
2018-11-13T13:11:15.709Z,14.04
2018-11-13T13:13:45.939Z,14.07
2018-11-13T13:16:16.811Z,14.07
2018-11-13T13:18:46.750Z,14.11
2018-11-13T13:21:16.539Z,14.19
2018-11-13T13:23:46.330Z,14.12
2018-11-13T13:26:16.224Z,14.11
2018-11-13T13:28:46.175Z,14.11
2018-11-13T13:31:16.043Z,14.11
2018-11-13T13:33:45.887Z,14.17
2018-11-13T13:36:15.767Z,14.16
2018-11-13T13:38:45.741Z,14.01
2018-11-13T13:41:15.617Z,13.98
2018-11-13T13:43:45.408Z,14.01
2018-11-13T13:46:15.272Z,13.92
2018-11-13T13:48:45.205Z,13.87
2018-11-13T13:51:15.055Z,13.85
2018-11-13T13:53:44.994Z,13.84
2018-11-13T13:56:14.911Z,13.83
2018-11-13T13:58:44.791Z,13.80
2018-11-13T14:01:14.778Z,13.79
2018-11-13T14:03:44.600Z,13.80
2018-11-13T14:06:14.505Z,13.83
2018-11-13T14:08:44.466Z,13.74
2018-11-13T14:11:14.312Z,13.69
2018-11-13T14:13:44.192Z,13.66
2018-11-13T14:16:14.165Z,13.64
2018-11-13T14:18:44.073Z,13.61
2018-11-13T14:21:13.971Z,13.58
2018-11-13T14:23:43.776Z,13.55
2018-11-13T14:26:13.759Z,13.50
2018-11-13T14:28:43.657Z,13.46
2018-11-13T14:31:13.609Z,13.42
2018-11-13T14:33:43.513Z,13.36
2018-11-13T14:36:13.433Z,13.32
2018-11-13T14:38:43.308Z,13.25
2018-11-13T14:41:13.239Z,13.22
2018-11-13T14:43:43.070Z,13.17
2018-11-13T14:46:12.979Z,13.08
2018-11-13T14:48:42.911Z,13.02
2018-11-13T14:51:12.797Z,12.95
2018-11-13T14:53:42.564Z,12.90
2018-11-13T14:56:12.467Z,12.83
2018-11-13T14:58:42.329Z,12.79
2018-11-13T15:01:12.103Z,12.75
2018-11-13T15:03:42.011Z,12.71
2018-11-13T15:06:11.963Z,12.66
2018-11-13T15:08:41.884Z,12.63
2018-11-13T15:11:11.783Z,12.58
2018-11-13T15:13:41.584Z,12.53
2018-11-13T15:16:11.493Z,12.48
2018-11-13T15:18:41.413Z,12.45
2018-11-13T15:21:11.235Z,12.40
2018-11-13T15:23:41.148Z,12.37
2018-11-13T15:26:11.131Z,12.34
2018-11-13T15:28:40.959Z,12.31
2018-11-13T15:31:10.925Z,12.29
2018-11-13T15:33:40.819Z,12.26
2018-11-13T15:36:10.699Z,12.25
2018-11-13T15:38:40.599Z,11.56
2018-11-13T15:41:10.478Z,12.20
2018-11-13T15:43:40.387Z,12.17
2018-11-13T15:46:10.300Z,12.16
2018-11-13T15:48:40.215Z,12.21
2018-11-13T15:51:09.991Z,12.23
2018-11-13T15:53:39.916Z,12.24
2018-11-13T15:56:09.887Z,12.25
2018-11-13T15:58:39.794Z,12.26
2018-11-13T16:01:09.610Z,12.31
2018-11-13T16:03:39.863Z,12.27
2018-11-13T16:06:09.877Z,11.65
2018-11-13T16:08:39.888Z,12.20
2018-11-13T16:11:09.670Z,12.15
2018-11-13T16:13:39.467Z,12.12
2018-11-13T16:16:09.447Z,12.10
2018-11-13T16:18:39.591Z,12.07
2018-11-13T16:21:09.374Z,12.02
2018-11-13T16:23:39.408Z,11.99
2018-11-13T16:26:09.300Z,11.95
2018-11-13T16:28:39.252Z,11.90
2018-11-13T16:31:09.227Z,12.01
2018-11-13T16:33:39.147Z,12.04
2018-11-13T16:36:09.027Z,11.97
2018-11-13T16:38:39.010Z,11.91
2018-11-13T16:41:08.882Z,11.85
2018-11-13T16:43:38.823Z,11.77
2018-11-13T16:46:08.522Z,11.00
2018-11-13T16:48:38.416Z,11.68
2018-11-13T16:51:08.242Z,11.66
2018-11-13T16:53:43.234Z,11.62
2018-11-13T16:56:13.149Z,11.60
2018-11-13T16:58:43.004Z,11.58
2018-11-13T17:01:13.094Z,11.56
2018-11-13T17:03:42.945Z,11.53
2018-11-13T17:06:14.895Z,11.49
2018-11-13T17:08:44.738Z,11.47
2018-11-13T17:11:14.716Z,11.47
2018-11-13T17:13:44.687Z,11.46
2018-11-13T17:16:14.618Z,11.46
2018-11-13T17:18:44.458Z,11.49
2018-11-13T17:21:14.381Z,11.49
2018-11-13T17:23:44.278Z,11.47
2018-11-13T17:26:14.152Z,11.45
2018-11-13T17:28:44.134Z,11.43
2018-11-13T17:31:14.091Z,11.39
2018-11-13T17:33:43.998Z,11.42
2018-11-13T17:36:13.967Z,11.34
2018-11-13T17:38:43.852Z,11.28
2018-11-13T17:41:13.815Z,11.23
2018-11-13T17:43:43.689Z,11.21
2018-11-13T17:46:13.638Z,11.19
2018-11-13T17:48:43.478Z,11.15
2018-11-13T17:51:13.420Z,11.13
2018-11-13T17:53:43.311Z,11.10
2018-11-13T17:56:14.017Z,11.05
2018-11-13T17:58:44.752Z,11.04
2018-11-13T18:01:16.413Z,11.03
2018-11-13T18:03:48.238Z,10.99
2018-11-13T18:06:20.059Z,10.94
2018-11-13T18:08:49.929Z,10.92
2018-11-13T18:11:19.683Z,10.89
2018-11-13T18:13:50.458Z,10.89
2018-11-13T18:16:22.017Z,10.85
2018-11-13T18:18:51.851Z,10.75
2018-11-13T18:21:23.796Z,10.68
2018-11-13T18:23:55.168Z,10.98
2018-11-13T18:26:27.306Z,11.32
2018-11-13T18:28:58.177Z,11.48
2018-11-13T18:31:28.884Z,11.46
2018-11-13T18:33:59.838Z,11.33
2018-11-13T18:36:31.118Z,11.20
2018-11-13T18:39:01.898Z,11.08
2018-11-13T18:41:31.992Z,10.97
2018-11-13T18:44:03.450Z,10.87
2018-11-13T18:46:33.330Z,10.83
2018-11-13T18:49:03.308Z,10.78
2018-11-13T18:51:33.245Z,10.74
2018-11-13T18:54:03.107Z,10.75
2018-11-13T18:56:33.166Z,10.52
2018-11-13T18:59:03.243Z,10.63
2018-11-13T19:01:33.073Z,10.60
2018-11-13T19:04:03.151Z,10.58
2018-11-13T19:06:33.148Z,10.57
2018-11-13T19:09:03.256Z,10.57
2018-11-13T19:11:34.310Z,10.58
2018-11-13T19:14:04.650Z,10.57
2018-11-13T19:16:35.407Z,10.56
2018-11-13T19:19:05.603Z,10.54
2018-11-13T19:21:35.706Z,10.54
2018-11-13T19:24:06.148Z,10.51
2018-11-13T19:26:36.500Z,10.47
2018-11-13T19:29:06.848Z,10.46
2018-11-13T19:31:37.250Z,10.43
2018-11-13T19:34:07.547Z,10.38
2018-11-13T19:36:37.983Z,10.32
2018-11-13T19:39:11.938Z,10.25
2018-11-13T19:41:42.265Z,10.24
2018-11-13T19:44:12.683Z,10.17
2018-11-13T19:46:42.845Z,10.13
2018-11-13T19:49:13.132Z,10.11
2018-11-13T19:51:43.620Z,10.07
2018-11-13T19:54:13.979Z,10.07
2018-11-13T19:56:44.288Z,10.06
2018-11-13T19:59:14.535Z,10.10
2018-11-13T20:01:44.915Z,10.12
2018-11-13T20:04:15.294Z,10.18
2018-11-13T20:06:45.644Z,10.23
2018-11-13T20:09:15.925Z,10.25
2018-11-13T20:11:46.277Z,10.27
2018-11-13T20:14:16.605Z,10.30
2018-11-13T20:16:46.771Z,10.29
2018-11-13T20:19:17.798Z,10.32
2018-11-13T20:21:48.264Z,10.31
2018-11-13T20:24:18.510Z,10.35
2018-11-13T20:26:49.572Z,10.35
2018-11-13T20:29:20.013Z,10.37
2018-11-13T20:31:50.280Z,10.36
2018-11-13T20:34:20.433Z,10.39
2018-11-13T20:36:51.011Z,10.39
2018-11-13T20:39:21.295Z,10.38
2018-11-13T20:41:51.650Z,10.36
2018-11-13T20:44:21.757Z,10.32
2018-11-13T20:46:52.459Z,10.31
2018-11-13T20:49:22.434Z,10.30
2018-11-13T20:51:52.720Z,10.28
2018-11-13T20:54:23.591Z,10.29
2018-11-13T20:56:53.406Z,10.29
2018-11-13T20:59:24.417Z,10.25
2018-11-13T21:01:54.678Z,10.24
2018-11-13T21:04:25.046Z,10.28
2018-11-13T21:06:55.231Z,10.31
2018-11-13T21:09:25.004Z,10.31
2018-11-13T21:11:54.993Z,10.27
2018-11-13T21:14:24.979Z,8.07
2018-11-13T21:16:55.183Z,10.29
2018-11-13T21:19:25.182Z,10.28
2018-11-13T21:21:55.946Z,10.26
2018-11-13T21:24:26.839Z,10.24
2018-11-13T21:26:56.476Z,10.26
2018-11-13T21:29:26.919Z,10.24
2018-11-13T21:31:56.721Z,10.24
2018-11-13T21:34:27.042Z,10.22
2018-11-13T21:36:57.199Z,10.22
2018-11-13T21:39:27.958Z,10.20
2018-11-13T21:41:57.591Z,10.21
2018-11-13T21:44:27.986Z,10.19
2018-11-13T21:46:57.899Z,10.21
2018-11-13T21:49:27.981Z,10.25
2018-11-13T21:51:58.020Z,10.21
2018-11-13T21:54:28.309Z,10.21
2018-11-13T21:56:58.343Z,10.19
2018-11-13T21:59:29.083Z,10.18
2018-11-13T22:01:59.060Z,10.16
2018-11-13T22:04:29.653Z,10.17
2018-11-13T22:07:13.669Z,10.14
2018-11-13T22:09:44.507Z,10.16
2018-11-13T22:12:14.090Z,10.15
2018-11-13T22:14:44.234Z,10.13
2018-11-13T22:17:13.938Z,10.11
2018-11-13T22:19:44.940Z,10.13
2018-11-13T22:22:14.758Z,10.14
2018-11-13T22:24:45.810Z,10.13
2018-11-13T22:27:16.921Z,10.22
2018-11-13T22:29:49.050Z,10.23
2018-11-13T22:32:18.759Z,10.03
2018-11-13T22:34:50.235Z,10.03
2018-11-13T22:37:20.327Z,10.05
2018-11-13T22:39:51.272Z,9.93
2018-11-13T22:42:21.675Z,9.82
2018-11-13T22:44:51.857Z,9.80
2018-11-13T22:47:21.614Z,9.83
2018-11-13T22:49:52.882Z,9.81
2018-11-13T22:52:22.810Z,9.84
2018-11-13T22:54:52.803Z,9.82
2018-11-13T22:57:22.786Z,9.87
2018-11-13T22:59:53.679Z,9.87
2018-11-13T23:02:23.779Z,9.88
2018-11-13T23:04:55.036Z,9.31
2018-11-13T23:07:25.098Z,9.37
2018-11-13T23:09:55.300Z,9.84
2018-11-13T23:12:24.966Z,9.84
2018-11-13T23:14:55.125Z,9.90
2018-11-13T23:17:25.855Z,9.91
2018-11-13T23:19:56.398Z,9.93
2018-11-13T23:22:26.872Z,9.92
2018-11-13T23:24:57.197Z,9.91
2018-11-13T23:27:27.982Z,9.92
2018-11-13T23:29:58.110Z,9.95
2018-11-13T23:32:28.692Z,9.93
2018-11-13T23:34:58.479Z,9.92
2018-11-13T23:37:29.748Z,9.94
2018-11-13T23:39:59.978Z,9.93
2018-11-13T23:42:30.785Z,9.94
2018-11-13T23:45:00.841Z,9.86
2018-11-13T23:47:31.017Z,9.82
2018-11-13T23:50:02.352Z,9.79
2018-11-13T23:52:32.893Z,9.79
2018-11-13T23:55:03.020Z,9.78
2018-11-13T23:57:33.823Z,9.77
